Welcome to the New NWS' Forecast!
Most changes are behind the scenes, but click here for differences you might notice.

Terminal Aerodrome Forecast (TAF)

Issued by National Weather Service (NWS)

                            
327 
FTUS42 KMFL 172125 AAB
TAFMIA
TAF AMD
KMIA 172125Z 1721/1824 10012KT P6SM VCSH SCT030 SCT100
     FM180000 10010KT P6SM VCSH SCT030 SCT050
     FM181300 10012KT P6SM VCSH SCT025 SCT040
     FM181600 11013KT P6SM FEW030=